Time;durP1;ratioP1;P1;durP2;ratioP2;P2;SDS_P1;SDS_P2;PMS_P1;PMS_P2;Temp;Humidity;BMP_temperature;BMP_pressure;BME280_temperature;BME280_humidity;BME280_pressure;Samples;Min_cycle;Max_cycle;Signal;HPM_P1;HPM_P2
2022/08/03 00:01:58;;;;;;;1.98;0.68;;;22.40;76.20;;;;;;5114976;28;20102;-75
2022/08/03 00:04:24;;;;;;;1.00;0.55;;;22.50;75.90;;;;;;5096585;28;20481;-74
2022/08/03 00:06:50;;;;;;;8.35;0.85;;;;;;;;;;5114685;28;20039;-76
2022/08/03 00:09:16;;;;;;;0.60;0.40;;;22.80;74.30;;;;;;5114846;28;20046;-74
2022/08/03 00:11:41;;;;;;;0.80;0.60;;;22.80;74.60;;;;;;5114403;28;20051;-72
2022/08/03 00:14:08;;;;;;;1.33;0.45;;;22.80;74.60;;;;;;5114655;28;20039;-73
2022/08/03 00:16:34;;;;;;;1.30;0.70;;;22.70;74.90;;;;;;5095998;28;20051;-74
2022/08/03 00:19:01;;;;;;;1.98;0.60;;;22.60;74.80;;;;;;5096208;28;20059;-72
2022/08/03 00:21:27;;;;;;;0.95;0.60;;;22.20;75.90;;;;;;5113568;28;20084;-73
2022/08/03 00:23:53;;;;;;;1.02;0.93;;;22.00;76.20;;;;;;5104195;27;20034;-73
2022/08/03 00:26:20;;;;;;;1.17;0.60;;;21.90;76.40;;;;;;5117024;27;20076;-73
2022/08/03 00:28:46;;;;;;;0.75;0.68;;;21.80;76.70;;;;;;5116603;27;20162;-74
2022/08/03 00:31:12;;;;;;;2.30;0.80;;;21.70;77.00;;;;;;5134859;27;20043;-72
2022/08/03 00:33:38;;;;;;;4.25;0.70;;;21.80;77.00;;;;;;5116560;27;20031;-73
2022/08/03 00:36:04;;;;;;;1.42;0.60;;;21.90;77.10;;;;;;5115842;27;20042;-73
2022/08/03 00:38:29;;;;;;;0.70;0.60;;;21.90;77.10;;;;;;5134643;27;20039;-74
2022/08/03 00:40:55;;;;;;;0.82;0.60;;;21.90;77.10;;;;;;5116199;27;20038;-74
2022/08/03 00:43:25;;;;;;;0.70;0.60;;;21.90;77.00;;;;;;5116323;27;20046;-72
2022/08/03 00:45:51;;;;;;;2.25;0.80;;;22.00;76.50;;;;;;5116024;27;20515;-74
2022/08/03 00:48:17;;;;;;;0.50;0.50;;;22.20;75.80;;;;;;5116043;27;20082;-74
2022/08/03 00:50:42;;;;;;;0.73;0.50;;;22.20;75.30;;;;;;5116166;27;20042;-75
2022/08/03 00:53:13;;;;;;;0.90;0.68;;;22.40;74.90;;;;;;5116034;27;20442;-74
2022/08/03 00:55:40;;;;;;;0.93;0.60;;;22.40;74.70;;;;;;5115836;27;20130;-73
2022/08/03 00:58:07;;;;;;;1.05;0.70;;;22.30;74.90;;;;;;5134280;27;20039;-74
2022/08/03 01:00:37;;;;;;;1.25;0.90;;;22.30;75.20;;;;;;5134415;27;20046;-71
2022/08/03 01:03:04;;;;;;;1.02;0.57;;;22.10;75.60;;;;;;5115929;27;20039;-74
2022/08/03 01:05:39;;;;;;;0.73;0.57;;;22.00;75.90;;;;;;5134017;27;20092;-72
2022/08/03 01:08:15;;;;;;;0.90;0.70;;;22.10;75.70;;;;;;5134039;27;20477;-74
2022/08/03 01:10:55;;;;;;;0.70;0.47;;;22.10;75.60;;;;;;5115525;27;20045;-74
2022/08/03 01:13:48;;;;;;;1.05;0.70;;;22.10;75.70;;;;;;5115629;27;20042;-72
2022/08/03 01:16:18;;;;;;;1.02;0.60;;;22.10;75.70;;;;;;5115780;27;20047;-72
2022/08/03 01:19:12;;;;;;;1.23;0.70;;;22.10;75.70;;;;;;5134232;27;20091;-73
2022/08/03 01:21:59;;;;;;;0.73;0.60;;;22.20;75.20;;;;;;5133861;27;20043;-73
2022/08/03 01:24:47;;;;;;;0.60;0.50;;;22.30;74.90;;;;;;5133945;27;20073;-71
2022/08/03 01:27:42;;;;;;;1.60;0.60;;;22.30;75.10;;;;;;5134019;27;20031;-73
2022/08/03 01:30:11;;;;;;;3.80;0.50;;;21.90;76.50;;;;;;5115482;28;20038;-74
2022/08/03 01:32:53;;;;;;;3.63;0.90;;;21.40;77.70;;;;;;5133737;27;20107;-74
2022/08/03 01:35:42;;;;;;;3.97;0.50;;;21.50;77.50;;;;;;5134092;28;20435;-74
2022/08/03 01:38:16;;;;;;;0.47;0.32;;;21.70;76.80;;;;;;5124729;28;20044;-74
2022/08/03 01:40:45;;;;;;;0.60;0.57;;;21.70;76.90;;;;;;5113199;28;20062;-72
2022/08/03 01:43:16;;;;;;;0.80;0.60;;;21.60;77.00;;;;;;5095019;28;20039;-72
2022/08/03 01:45:42;;;;;;;0.75;0.57;;;21.70;76.90;;;;;;5094876;28;20368;-73
2022/08/03 01:48:11;;;;;;;1.65;0.68;;;21.80;76.50;;;;;;5094981;28;20040;-75
2022/08/03 01:50:37;;;;;;;1.60;0.52;;;21.60;76.90;;;;;;5095417;28;20040;-74
2022/08/03 01:53:06;;;;;;;1.33;0.60;;;21.50;77.10;;;;;;5113328;28;20039;-74
2022/08/03 01:55:35;;;;;;;0.43;0.38;;;21.40;77.50;;;;;;5112989;28;20541;-77
2022/08/03 01:58:02;;;;;;;1.30;0.80;;;21.40;77.30;;;;;;5094847;28;20586;-73
2022/08/03 02:00:30;;;;;;;0.98;0.57;;;21.70;77.00;;;;;;5112963;28;20046;-74
2022/08/03 02:02:57;;;;;;;2.35;0.60;;;21.90;76.50;;;;;;5112571;28;20051;-73
2022/08/03 02:05:25;;;;;;;1.08;0.70;;;21.90;76.60;;;;;;5113218;28;20039;-72
2022/08/03 02:07:51;;;;;;;0.40;0.30;;;21.90;76.60;;;;;;5113129;28;20058;-74
2022/08/03 02:10:19;;;;;;;1.20;0.50;;;21.90;77.40;;;;;;5094725;28;20035;-74
2022/08/03 02:12:46;;;;;;;1.30;0.73;;;21.90;76.80;;;;;;5113028;28;20127;-74
2022/08/03 02:15:15;;;;;;;0.70;0.63;;;21.70;77.70;;;;;;5094775;28;20043;-75
2022/08/03 02:17:43;;;;;;;1.23;0.50;;;21.40;77.90;;;;;;5113032;28;20071;-74
2022/08/03 02:20:12;;;;;;;1.77;0.60;;;21.40;77.20;;;;;;5094521;28;20789;-75
2022/08/03 02:22:39;;;;;;;0.82;0.55;;;21.20;77.50;;;;;;5112769;28;20039;-75
2022/08/03 02:25:07;;;;;;;1.58;0.60;;;21.20;77.30;;;;;;5112955;28;20043;-79
2022/08/03 02:27:34;;;;;;;1.92;0.45;;;21.30;77.30;;;;;;5113035;28;20491;-79
2022/08/03 02:30:08;;;;;;;1.02;0.47;;;21.30;77.00;;;;;;5112792;28;20043;-79
2022/08/03 02:32:36;;;;;;;1.23;0.73;;;21.40;76.50;;;;;;5112625;28;20043;-76
2022/08/03 02:35:04;;;;;;;1.13;0.63;;;21.40;76.30;;;;;;5112803;28;20035;-78
2022/08/03 02:37:35;;;;;;;0.63;0.57;;;21.40;76.50;;;;;;5115683;28;20050;-75
2022/08/03 02:40:03;;;;;;;1.48;0.60;;;21.30;76.50;;;;;;5115061;28;20050;-72
2022/08/03 02:42:32;;;;;;;1.00;0.43;;;21.30;76.50;;;;;;5133431;28;20034;-78
2022/08/03 02:45:00;;;;;;;0.60;0.47;;;21.20;77.00;;;;;;5134660;27;20092;-72
2022/08/03 02:47:28;;;;;;;2.38;0.50;;;21.00;77.50;;;;;;5136476;27;20043;-74
2022/08/03 02:49:57;;;;;;;0.70;0.60;;;21.00;77.70;;;;;;5136897;27;20042;-74
2022/08/03 02:52:26;;;;;;;2.22;0.40;;;20.80;77.90;;;;;;5136767;27;20055;-71
2022/08/03 02:54:56;;;;;;;2.17;0.60;;;20.90;77.90;;;;;;5136676;27;20043;-74
2022/08/03 02:57:23;;;;;;;1.42;0.70;;;21.10;77.10;;;;;;5136963;27;20043;-75
2022/08/03 02:59:50;;;;;;;2.78;0.60;;;21.20;76.70;;;;;;5136620;27;20143;-74
2022/08/03 03:02:18;;;;;;;0.28;0.28;;;21.40;77.00;;;;;;5118103;27;20449;-75
2022/08/03 03:04:45;;;;;;;0.85;0.50;;;21.30;76.30;;;;;;5117934;27;20041;-73
2022/08/03 03:07:15;;;;;;;1.80;0.40;;;21.30;76.80;;;;;;5116817;27;20092;-72
2022/08/03 03:09:42;;;;;;;0.70;0.60;;;21.20;77.60;;;;;;5136664;27;20528;-72
2022/08/03 03:12:09;;;;;;;1.25;0.47;;;21.10;77.80;;;;;;5116511;27;20441;-76
2022/08/03 03:14:36;;;;;;;0.80;0.52;;;20.90;78.00;;;;;;5118170;27;20476;-75
2022/08/03 03:17:03;;;;;;;2.13;0.60;;;21.00;77.50;;;;;;5117760;27;20042;-74
2022/08/03 03:19:31;;;;;;;0.93;0.50;;;21.30;77.00;;;;;;5117705;27;20129;-72
2022/08/03 03:22:01;;;;;;;1.02;0.60;;;21.50;76.40;;;;;;5117533;27;20035;-79
2022/08/03 03:24:30;;;;;;;0.82;0.52;;;21.50;77.30;;;;;;5117834;27;20067;-79
2022/08/03 03:26:57;;;;;;;1.13;0.50;;;21.30;77.20;;;;;;5117292;27;20032;-78
2022/08/03 03:29:23;;;;;;;0.70;0.55;;;21.30;77.20;;;;;;5117791;27;20042;-74
2022/08/03 03:31:49;;;;;;;0.93;0.60;;;21.20;77.50;;;;;;5135805;27;20141;-73
2022/08/03 03:34:15;;;;;;;0.60;0.45;;;21.30;77.40;;;;;;5135924;27;20454;-76
2022/08/03 03:36:41;;;;;;;0.82;0.60;;;21.30;77.80;;;;;;5135845;27;20027;-73
2022/08/03 03:39:06;;;;;;;4.18;0.63;;;21.00;78.20;;;;;;5135914;27;20045;-74
2022/08/03 03:41:34;;;;;;;1.80;0.65;;;21.20;77.10;;;;;;5117404;27;20126;-72
2022/08/03 03:43:59;;;;;;;1.38;0.70;;;21.40;76.30;;;;;;5135848;27;20452;-75
2022/08/03 03:46:25;;;;;;;1.45;0.60;;;21.60;76.00;;;;;;5136081;27;20038;-77
2022/08/03 03:48:51;;;;;;;1.10;0.52;;;21.50;76.40;;;;;;5117340;27;20074;-72
2022/08/03 03:51:17;;;;;;;0.98;0.32;;;21.60;75.70;;;;;;5135650;27;20042;-77
2022/08/03 03:54:00;;;;;;;2.40;0.40;;;21.60;75.40;;;;;;5135625;27;20463;-73
2022/08/03 03:56:27;;;;;;;3.47;0.50;;;21.50;74.90;;;;;;5117356;27;20027;-77
2022/08/03 03:58:53;;;;;;;0.77;0.52;;;21.60;74.20;;;;;;5117142;27;20405;-77
2022/08/03 04:01:20;;;;;;;0.75;0.50;;;21.60;74.30;;;;;;5135446;27;20043;-76
2022/08/03 04:03:46;;;;;;;0.90;0.50;;;21.40;74.50;;;;;;5135369;27;20122;-76
2022/08/03 04:11:51;;;;;;;0.90;0.45;;;21.30;74.80;;;;;;5135269;27;20073;-73
2022/08/03 04:14:33;;;;;;;0.40;0.40;;;21.30;74.80;;;;;;5116821;27;20129;-72
2022/08/03 04:17:08;;;;;;;1.27;0.45;;;21.60;74.20;;;;;;5116993;27;20043;-74
2022/08/03 04:19:37;;;;;;;3.92;0.50;;;21.80;73.80;;;;;;5123609;27;20043;-71
2022/08/03 04:22:09;;;;;;;1.57;0.57;;;21.80;73.80;;;;;;5114592;28;20036;-71
2022/08/03 04:25:04;;;;;;;0.47;0.30;;;21.70;73.80;;;;;;5096090;28;20265;-73
2022/08/03 04:27:35;;;;;;;0.63;0.57;;;21.70;73.80;;;;;;5110850;28;20036;-71
2022/08/03 04:30:04;;;;;;;1.42;0.47;;;21.60;74.00;;;;;;5114429;28;20043;-72
2022/08/03 04:32:31;;;;;;;1.10;0.43;;;21.50;74.40;;;;;;5113992;28;20051;-74
2022/08/03 04:34:57;;;;;;;1.17;0.50;;;21.30;74.90;;;;;;5114318;28;20705;-72
2022/08/03 04:37:38;;;;;;;0.60;0.40;;;21.30;75.00;;;;;;5114256;28;20138;-73
2022/08/03 04:40:08;;;;;;;0.50;0.40;;;21.40;75.20;;;;;;5114298;28;20036;-72
2022/08/03 04:42:37;;;;;;;0.82;0.60;;;21.30;75.00;;;;;;5098225;28;20042;-73
2022/08/03 04:45:03;;;;;;;0.88;0.50;;;21.30;76.20;;;;;;5114059;28;20043;-72
2022/08/03 04:47:33;;;;;;;1.20;0.68;;;21.00;76.80;;;;;;5114413;27;20106;-71
2022/08/03 04:50:03;;;;;;;1.40;0.57;;;20.90;77.20;;;;;;5116226;27;20038;-72
2022/08/03 04:52:29;;;;;;;0.77;0.40;;;20.80;77.20;;;;;;5116685;27;20047;-72
2022/08/03 04:54:56;;;;;;;2.97;0.70;;;20.80;77.40;;;;;;5095982;28;20413;-74
2022/08/03 04:57:22;;;;;;;3.33;0.50;;;20.80;77.70;;;;;;5113939;28;20035;-73
2022/08/03 04:59:51;;;;;;;1.17;0.40;;;20.80;78.00;;;;;;5095633;28;20085;-74
2022/08/03 05:02:17;;;;;;;7.03;0.70;;;20.80;79.00;;;;;;5115820;27;20058;-75
2022/08/03 05:04:45;;;;;;;1.63;0.50;;;20.90;78.40;;;;;;5126678;27;20035;-74
2022/08/03 05:07:14;;;;;;;0.77;0.55;;;20.90;77.40;;;;;;5133494;27;20095;-72
2022/08/03 05:09:41;;;;;;;1.88;0.50;;;20.90;78.60;;;;;;5134131;27;20130;-75
2022/08/03 05:12:07;;;;;;;1.52;1.00;;;20.60;79.80;;;;;;5134028;27;20066;-74
2022/08/03 05:14:35;;;;;;;0.98;0.63;;;20.60;78.00;;;;;;5115198;27;20375;-74
2022/08/03 05:17:01;;;;;;;0.70;0.50;;;20.60;78.20;;;;;;5133219;27;20039;-74
2022/08/03 05:19:27;;;;;;;0.80;0.52;;;20.60;79.00;;;;;;5133171;27;20043;-73
2022/08/03 05:21:53;;;;;;;0.85;0.40;;;20.60;78.90;;;;;;5114340;27;20031;-73
2022/08/03 05:24:19;;;;;;;3.72;0.43;;;20.70;78.60;;;;;;5114974;28;20046;-74
2022/08/03 05:26:45;;;;;;;2.25;0.95;;;20.80;78.60;;;;;;5115467;28;20031;-72
2022/08/03 05:29:10;;;;;;;0.85;0.50;;;20.80;78.30;;;;;;5134093;27;20035;-72
2022/08/03 05:31:36;;;;;;;0.90;0.38;;;21.00;77.70;;;;;;5133914;27;20047;-75
2022/08/03 05:34:02;;;;;;;1.60;0.60;;;21.30;77.50;;;;;;5133858;28;20043;-80
2022/08/03 05:36:27;;;;;;;2.30;0.30;;;21.60;77.30;;;;;;5133967;28;20397;-74
2022/08/03 05:38:53;;;;;;;2.03;0.75;;;22.00;76.80;;;;;;5115594;28;20031;-75
2022/08/03 05:41:19;;;;;;;2.65;0.77;;;22.40;77.30;;;;;;5133798;28;20517;-75
2022/08/03 05:43:45;;;;;;;0.88;0.50;;;22.90;76.00;;;;;;5133813;28;20035;-77
2022/08/03 05:46:11;;;;;;;4.10;0.60;;;22.90;75.90;;;;;;5134139;28;20055;-73
2022/08/03 05:48:37;;;;;;;2.53;0.40;;;22.50;76.10;;;;;;5133721;28;20038;-76
2022/08/03 05:51:05;;;;;;;0.85;0.50;;;22.50;77.20;;;;;;5133679;28;20047;-75
2022/08/03 05:53:34;;;;;;;1.10;0.55;;;22.40;76.30;;;;;;5133805;28;20046;-75
2022/08/03 05:56:00;;;;;;;0.52;0.50;;;22.80;75.90;;;;;;5133724;28;20035;-79
2022/08/03 05:58:25;;;;;;;0.45;0.40;;;23.70;75.00;;;;;;5133527;28;20119;-78
2022/08/03 06:00:51;;;;;;;0.47;0.45;;;23.60;75.40;;;;;;5134121;28;20073;-76
2022/08/03 06:03:17;;;;;;;0.30;0.30;;;23.90;74.70;;;;;;5115230;28;20051;-81
2022/08/03 06:05:43;;;;;;;0.45;0.40;;;;;;;;;;5133478;28;20047;-73
2022/08/03 06:08:09;;;;;;;6.85;0.57;;;24.60;76.60;;;;;;5134023;28;20043;-79
2022/08/03 06:10:34;;;;;;;1.88;0.60;;;24.80;79.70;;;;;;5114916;28;20065;-72
2022/08/03 06:13:00;;;;;;;1.10;0.60;;;24.80;72.50;;;;;;5133312;28;20557;-75
2022/08/03 06:15:26;;;;;;;0.47;0.43;;;24.90;73.00;;;;;;5115312;28;20023;-75
2022/08/03 06:17:52;;;;;;;0.88;0.45;;;25.10;74.10;;;;;;5120408;28;20061;-75
2022/08/03 06:20:19;;;;;;;0.75;0.57;;;25.20;75.10;;;;;;5096980;28;20439;-75
2022/08/03 06:22:46;;;;;;;1.00;0.70;;;25.20;72.50;;;;;;5098441;28;20043;-75
2022/08/03 06:25:12;;;;;;;1.73;0.77;;;25.40;72.70;;;;;;5116739;28;20502;-76
2022/08/03 06:27:41;;;;;;;7.25;0.50;;;25.70;72.70;;;;;;5116605;28;20028;-75
2022/08/03 06:30:09;;;;;;;1.15;0.60;;;25.70;72.20;;;;;;5098233;28;20571;-75
2022/08/03 06:32:38;;;;;;;1.02;0.55;;;25.30;72.30;;;;;;5116461;28;20055;-72
2022/08/03 06:35:08;;;;;;;0.53;0.50;;;25.80;75.00;;;;;;5116761;28;20047;-79
2022/08/03 06:37:54;;;;;;;3.78;0.60;;;26.10;71.50;;;;;;5116654;28;20896;-79
2022/08/03 06:40:30;;;;;;;1.88;0.60;;;26.00;70.20;;;;;;5116202;28;20043;-78
2022/08/03 06:42:59;;;;;;;1.65;0.50;;;25.70;70.20;;;;;;5116116;28;20040;-74
2022/08/03 06:45:27;;;;;;;4.88;0.50;;;25.30;71.00;;;;;;5116607;28;20402;-75
2022/08/03 06:48:04;;;;;;;1.15;0.80;;;25.40;71.40;;;;;;5116658;28;20032;-73
2022/08/03 06:50:30;;;;;;;3.28;0.60;;;26.40;70.80;;;;;;5116495;28;20040;-78
2022/08/03 06:52:56;;;;;;;0.73;0.52;;;26.70;71.20;;;;;;5116418;28;20570;-79
2022/08/03 06:55:22;;;;;;;0.45;0.43;;;27.20;69.60;;;;;;5116310;28;20146;-75
2022/08/03 06:57:48;;;;;;;0.50;0.40;;;27.30;67.70;;;;;;5116156;28;20095;-77
2022/08/03 07:00:14;;;;;;;1.42;0.70;;;27.30;68.90;;;;;;5116257;28;20071;-75
2022/08/03 07:02:40;;;;;;;2.47;0.50;;;27.50;69.00;;;;;;5116215;28;20040;-76
2022/08/03 07:05:09;;;;;;;0.70;0.57;;;27.70;66.60;;;;;;5116298;28;20039;-80
2022/08/03 07:07:35;;;;;;;4.90;0.60;;;;;;;;;;5115970;28;20490;-77
2022/08/03 07:10:01;;;;;;;0.70;0.60;;;27.80;67.50;;;;;;5097917;28;20050;-76
2022/08/03 07:12:28;;;;;;;0.88;0.50;;;28.10;67.00;;;;;;5116040;28;20056;-78
2022/08/03 07:14:55;;;;;;;3.15;0.80;;;28.30;67.10;;;;;;5115959;28;20044;-76
2022/08/03 07:17:22;;;;;;;2.85;0.60;;;28.60;66.90;;;;;;5115985;28;20043;-78
2022/08/03 07:19:47;;;;;;;1.65;0.68;;;28.70;65.90;;;;;;5115847;28;20035;-75
2022/08/03 07:22:13;;;;;;;0.52;0.52;;;28.80;65.80;;;;;;5097516;28;20047;-76
2022/08/03 07:24:40;;;;;;;1.05;0.50;;;28.70;66.40;;;;;;5115921;28;20596;-79
2022/08/03 07:27:07;;;;;;;5.43;0.77;;;28.70;66.20;;;;;;5097475;28;20046;-78
2022/08/03 07:29:34;;;;;;;1.73;0.70;;;28.60;67.80;;;;;;5115665;28;20040;-78
2022/08/03 07:32:00;;;;;;;0.73;0.57;;;28.70;67.70;;;;;;5113762;28;20048;-78
2022/08/03 07:34:26;;;;;;;0.70;0.70;;;28.80;66.90;;;;;;5113503;28;20042;-75
2022/08/03 07:36:51;;;;;;;1.02;0.70;;;28.80;66.90;;;;;;5112771;28;20071;-76
2022/08/03 07:39:17;;;;;;;0.60;0.50;;;28.70;67.10;;;;;;5114881;28;20039;-78
2022/08/03 07:41:43;;;;;;;1.98;0.75;;;29.10;66.10;;;;;;5095076;28;20043;-77
2022/08/03 07:44:09;;;;;;;2.22;0.57;;;29.20;66.50;;;;;;5113642;28;20047;-77
2022/08/03 07:46:34;;;;;;;0.85;0.50;;;29.60;66.30;;;;;;5113213;28;20035;-79
2022/08/03 07:49:00;;;;;;;0.50;0.50;;;29.30;64.70;;;;;;5112837;28;20039;-78
2022/08/03 07:51:26;;;;;;;0.50;0.40;;;29.40;66.10;;;;;;5094288;28;20405;-78
2022/08/03 07:53:52;;;;;;;0.43;0.32;;;29.70;65.60;;;;;;5112787;28;20048;-78
2022/08/03 07:56:18;;;;;;;2.85;0.40;;;;;;;;;;5112905;28;20126;-77
2022/08/03 07:58:44;;;;;;;2.05;0.95;;;30.20;90.90;;;;;;5112659;28;20089;-76
2022/08/03 08:01:10;;;;;;;0.75;0.60;;;30.40;65.20;;;;;;5114481;28;20122;-77
2022/08/03 08:03:36;;;;;;;4.32;0.60;;;30.50;65.20;;;;;;5115072;28;20525;-78
2022/08/03 08:06:01;;;;;;;0.88;0.70;;;30.60;65.40;;;;;;5114869;28;20119;-76
2022/08/03 08:08:27;;;;;;;0.80;0.60;;;30.40;65.50;;;;;;5114947;28;20058;-78
2022/08/03 08:10:53;;;;;;;9.57;0.90;;;30.40;66.30;;;;;;5114709;28;20790;-74
2022/08/03 08:13:18;;;;;;;0.98;0.77;;;30.90;65.60;;;;;;5096133;28;20070;-75
2022/08/03 08:15:44;;;;;;;3.22;0.68;;;31.10;65.80;;;;;;5114693;28;20399;-74
2022/08/03 08:18:11;;;;;;;0.73;0.60;;;31.10;64.70;;;;;;5114820;28;20491;-75
2022/08/03 08:20:37;;;;;;;1.00;0.70;;;31.20;64.90;;;;;;5096153;28;20147;-77
2022/08/03 08:23:06;;;;;;;1.17;0.73;;;31.20;64.30;;;;;;5096284;28;20051;-75
2022/08/03 08:25:33;;;;;;;0.60;0.60;;;30.90;64.00;;;;;;5114567;28;20039;-76
2022/08/03 08:28:03;;;;;;;0.50;0.50;;;30.70;63.80;;;;;;5114489;28;20059;-75
2022/08/03 08:30:30;;;;;;;1.23;0.50;;;31.00;64.10;;;;;;5114288;28;20491;-75
2022/08/03 08:32:56;;;;;;;0.60;0.50;;;31.20;65.00;;;;;;5113866;28;20044;-74
2022/08/03 08:35:23;;;;;;;3.00;0.60;;;31.20;64.10;;;;;;5114082;28;20067;-75
2022/08/03 08:37:49;;;;;;;1.10;0.50;;;31.60;63.60;;;;;;5114039;28;20047;-75
2022/08/03 08:40:15;;;;;;;0.50;0.50;;;31.60;63.30;;;;;;5114055;28;20030;-75
2022/08/03 08:42:42;;;;;;;0.55;0.52;;;31.90;63.50;;;;;;5095011;28;20081;-76
2022/08/03 08:45:09;;;;;;;0.63;0.50;;;31.70;62.80;;;;;;5095693;28;20043;-77
2022/08/03 08:47:40;;;;;;;0.60;0.60;;;31.60;61.90;;;;;;5113571;28;20044;-76
2022/08/03 08:50:08;;;;;;;1.63;0.63;;;31.40;61.70;;;;;;5114156;28;20402;-79
2022/08/03 08:52:35;;;;;;;0.90;0.60;;;30.60;61.10;;;;;;5114030;28;20087;-75
2022/08/03 08:55:06;;;;;;;1.67;0.70;;;31.40;60.50;;;;;;5114071;28;20039;-74
2022/08/03 08:57:37;;;;;;;0.50;0.47;;;31.40;60.60;;;;;;5114018;28;20078;-74
2022/08/03 09:00:14;;;;;;;2.00;0.80;;;31.80;60.50;;;;;;5114010;28;20040;-78
2022/08/03 09:02:43;;;;;;;1.40;0.60;;;32.00;61.00;;;;;;5113979;28;20088;-75
2022/08/03 09:05:14;;;;;;;0.75;0.50;;;31.80;60.40;;;;;;5113845;28;20410;-74
2022/08/03 09:07:41;;;;;;;1.98;0.90;;;31.00;61.10;;;;;;5113611;28;20047;-74
2022/08/03 09:10:07;;;;;;;1.33;0.90;;;31.50;62.80;;;;;;5113524;28;20042;-76
2022/08/03 09:12:46;;;;;;;1.38;0.98;;;31.80;61.20;;;;;;5113432;28;20126;-75
2022/08/03 09:15:23;;;;;;;5.38;0.70;;;32.00;61.20;;;;;;5113518;28;20114;-74
2022/08/03 09:17:50;;;;;;;0.60;0.60;;;32.10;60.60;;;;;;5113378;28;20130;-76
2022/08/03 09:20:18;;;;;;;2.00;0.85;;;31.70;60.90;;;;;;5113558;28;20478;-73
2022/08/03 09:23:07;;;;;;;0.77;0.60;;;31.80;61.20;;;;;;5113676;28;20083;-74
2022/08/03 09:25:36;;;;;;;2.20;0.77;;;31.70;60.80;;;;;;5113583;28;20040;-73
2022/08/03 09:28:11;;;;;;;0.90;0.80;;;31.80;59.70;;;;;;5113577;28;20095;-74
2022/08/03 09:30:39;;;;;;;3.10;0.65;;;31.20;60.00;;;;;;5113394;28;20109;-75
2022/08/03 09:33:08;;;;;;;1.40;0.73;;;31.00;59.80;;;;;;5113437;28;20051;-75
2022/08/03 09:35:45;;;;;;;1.42;0.70;;;31.50;61.20;;;;;;5095358;28;20384;-75
2022/08/03 09:38:17;;;;;;;2.45;1.13;;;31.60;60.40;;;;;;5113542;28;20646;-75
2022/08/03 09:40:44;;;;;;;0.52;0.52;;;32.10;61.70;;;;;;5094964;28;20084;-74
2022/08/03 09:43:11;;;;;;;2.28;0.93;;;31.50;60.00;;;;;;5113228;28;20036;-74
2022/08/03 09:45:38;;;;;;;3.55;0.60;;;32.10;59.70;;;;;;5111028;28;20050;-77
2022/08/03 09:48:36;;;;;;;1.52;0.57;;;31.60;59.50;;;;;;5101884;28;20036;-76
2022/08/03 09:51:03;;;;;;;1.88;0.70;;;31.70;59.40;;;;;;5100652;28;20124;-76
2022/08/03 09:53:29;;;;;;;1.35;0.77;;;31.50;59.80;;;;;;5095606;28;20039;-75
2022/08/03 09:56:00;;;;;;;1.45;0.45;;;31.80;60.20;;;;;;5080783;28;20044;-74
2022/08/03 09:58:30;;;;;;;0.60;0.60;;;31.60;59.30;;;;;;5078987;28;20048;-77
2022/08/03 10:00:58;;;;;;;;;;;31.80;60.10;;;;;;5112985;28;20072;-76
2022/08/03 10:03:27;;;;;;;0.57;0.55;;;31.80;59.40;;;;;;5096757;28;19915;-74
2022/08/03 10:05:54;;;;;;;5.57;0.63;;;31.60;60.00;;;;;;5096624;28;20040;-76
2022/08/03 10:08:20;;;;;;;1.02;0.70;;;31.60;59.30;;;;;;5096366;28;20119;-75
2022/08/03 10:10:49;;;;;;;0.98;0.70;;;31.50;58.30;;;;;;5096797;28;20079;-75
2022/08/03 10:13:19;;;;;;;3.15;0.65;;;31.40;59.40;;;;;;5110120;28;20039;-75
2022/08/03 10:15:45;;;;;;;0.65;0.60;;;31.60;58.80;;;;;;5116542;28;20078;-75
2022/08/03 10:18:12;;;;;;;0.93;0.70;;;31.80;58.00;;;;;;5098518;28;20100;-75
2022/08/03 10:20:47;;;;;;;1.45;0.70;;;31.90;58.40;;;;;;5097915;28;20040;-74
2022/08/03 10:23:15;;;;;;;0.95;0.70;;;32.00;59.10;;;;;;5115151;28;20506;-74
2022/08/03 10:25:46;;;;;;;2.65;0.82;;;31.80;58.40;;;;;;5115005;28;20050;-75
2022/08/03 10:28:15;;;;;;;0.50;0.45;;;32.10;58.10;;;;;;5115771;28;20035;-74
2022/08/03 10:30:44;;;;;;;0.77;0.70;;;31.90;58.10;;;;;;5112635;27;20048;-75
2022/08/03 10:33:20;;;;;;;0.75;0.63;;;32.20;58.00;;;;;;5112671;28;20510;-76
2022/08/03 10:35:50;;;;;;;0.30;0.30;;;32.30;58.00;;;;;;5113678;28;20169;-76
2022/08/03 10:38:21;;;;;;;1.23;0.73;;;32.50;57.70;;;;;;5095547;28;20495;-79
2022/08/03 10:40:50;;;;;;;0.80;0.57;;;32.60;57.40;;;;;;5113262;28;20120;-77
2022/08/03 10:43:58;;;;;;;0.55;0.50;;;32.30;56.60;;;;;;5113970;28;20043;-76
2022/08/03 10:46:26;;;;;;;0.88;0.63;;;32.10;57.00;;;;;;5094197;28;20035;-81
2022/08/03 10:48:52;;;;;;;3.22;0.70;;;31.80;57.20;;;;;;5094630;28;20537;-77
2022/08/03 10:51:19;;;;;;;0.60;0.60;;;32.30;57.80;;;;;;5115409;28;20406;-77
2022/08/03 10:53:46;;;;;;;0.70;0.60;;;32.20;57.50;;;;;;5114067;28;20151;-76
2022/08/03 10:59:15;;;;;;;1.42;0.65;;;31.90;57.80;;;;;;5114404;28;20402;-76
2022/08/03 11:01:51;;;;;;;1.33;0.70;;;32.00;58.20;;;;;;5114081;28;20043;-75
2022/08/03 11:04:23;;;;;;;1.13;0.70;;;32.40;58.20;;;;;;5095945;28;20075;-74
2022/08/03 11:07:17;;;;;;;1.40;0.80;;;32.40;58.30;;;;;;5094975;28;20032;-79
2022/08/03 11:09:52;;;;;;;0.90;0.68;;;32.40;57.40;;;;;;5114130;28;20035;-74
2022/08/03 11:12:26;;;;;;;4.63;0.70;;;32.60;58.00;;;;;;5095581;28;20047;-75
2022/08/03 11:14:53;;;;;;;0.60;0.50;;;32.30;58.10;;;;;;5096614;28;20032;-75
2022/08/03 11:17:19;;;;;;;0.85;0.80;;;31.90;57.60;;;;;;5097201;28;20031;-77
2022/08/03 11:19:46;;;;;;;0.70;0.55;;;32.10;58.10;;;;;;5113147;28;20047;-76
2022/08/03 11:22:12;;;;;;;0.82;0.80;;;32.00;57.70;;;;;;5095355;28;20059;-75
2022/08/03 11:24:46;;;;;;;1.17;0.75;;;32.20;58.30;;;;;;5113851;28;20043;-77
2022/08/03 11:27:18;;;;;;;1.85;0.80;;;32.80;58.70;;;;;;5114621;28;20510;-79
2022/08/03 11:30:09;;;;;;;2.28;0.75;;;32.40;57.80;;;;;;5115119;28;20130;-78
2022/08/03 11:32:45;;;;;;;1.75;0.70;;;32.50;58.50;;;;;;5097330;28;20541;-80
2022/08/03 11:35:26;;;;;;;1.95;0.98;;;31.90;58.10;;;;;;5096843;28;20039;-77
2022/08/03 11:38:00;;;;;;;0.55;0.50;;;32.50;58.30;;;;;;5113160;28;20040;-81
2022/08/03 11:40:36;;;;;;;0.68;0.60;;;33.10;59.10;;;;;;5113197;28;20422;-80
2022/08/03 11:43:03;;;;;;;1.42;0.80;;;33.70;58.40;;;;;;5112673;28;20031;-79
2022/08/03 11:45:30;;;;;;;1.25;0.70;;;33.40;58.50;;;;;;5096922;28;20119;-78
2022/08/03 11:47:57;;;;;;;0.70;0.52;;;33.30;57.70;;;;;;5095572;28;20038;-75
2022/08/03 11:50:24;;;;;;;0.73;0.70;;;33.10;57.20;;;;;;5095134;28;20071;-76
2022/08/03 11:52:50;;;;;;;1.75;0.80;;;33.20;57.90;;;;;;5094927;28;20052;-76
2022/08/03 11:55:20;;;;;;;2.63;0.80;;;33.40;58.20;;;;;;5094582;28;20059;-74
2022/08/03 11:57:46;;;;;;;1.02;0.80;;;34.10;58.40;;;;;;5093947;28;20043;-75
2022/08/03 12:00:27;;;;;;;1.75;0.73;;;33.30;57.60;;;;;;5113064;28;20042;-75
2022/08/03 12:02:56;;;;;;;0.82;0.60;;;33.30;58.10;;;;;;5094334;28;20506;-75
2022/08/03 12:05:39;;;;;;;4.15;1.58;;;33.40;57.80;;;;;;5112738;28;20091;-75
2022/08/03 12:08:06;;;;;;;1.67;1.00;;;33.00;57.80;;;;;;5112210;28;20067;-75
2022/08/03 12:10:32;;;;;;;5.32;1.35;;;33.20;58.20;;;;;;5114652;28;20047;-75
2022/08/03 12:12:59;;;;;;;1.13;0.93;;;32.80;57.90;;;;;;5095917;28;20047;-76
2022/08/03 12:15:27;;;;;;;0.93;0.80;;;32.40;57.70;;;;;;5095040;28;20100;-75
2022/08/03 12:17:53;;;;;;;0.88;0.70;;;32.70;58.10;;;;;;5094013;28;20070;-75
2022/08/03 12:20:29;;;;;;;1.52;1.00;;;33.10;57.30;;;;;;5094151;28;20037;-74
2022/08/03 12:23:02;;;;;;;2.05;0.95;;;33.40;56.90;;;;;;5111024;28;20040;-75
2022/08/03 12:25:28;;;;;;;1.42;0.90;;;33.10;57.20;;;;;;5094118;28;20048;-76
2022/08/03 12:28:16;;;;;;;1.05;0.70;;;33.10;57.20;;;;;;5112291;28;20490;-75
2022/08/03 12:30:43;;;;;;;0.98;0.75;;;33.10;57.60;;;;;;5112432;28;20032;-74
2022/08/03 12:33:27;;;;;;;1.73;1.00;;;33.10;57.10;;;;;;5112650;28;20122;-75
2022/08/03 12:36:09;;;;;;;1.35;0.70;;;33.20;57.40;;;;;;5111983;28;20104;-75
2022/08/03 12:38:38;;;;;;;1.38;0.90;;;33.10;57.20;;;;;;5112200;28;20042;-75
2022/08/03 12:41:14;;;;;;;2.50;0.73;;;33.10;57.00;;;;;;5113345;28;20040;-74
2022/08/03 12:43:50;;;;;;;1.27;1.05;;;33.20;56.90;;;;;;5114074;28;20063;-75
2022/08/03 12:46:18;;;;;;;0.93;0.70;;;33.20;57.20;;;;;;5095802;28;20050;-75
2022/08/03 12:49:05;;;;;;;2.80;0.70;;;33.40;57.30;;;;;;5095072;28;20035;-75
2022/08/03 12:51:36;;;;;;;2.03;0.70;;;33.30;56.10;;;;;;5093626;28;20058;-74
2022/08/03 12:54:04;;;;;;;4.10;0.85;;;33.30;56.90;;;;;;5111950;28;20061;-75
2022/08/03 12:56:29;;;;;;;2.10;0.90;;;33.70;56.70;;;;;;5111634;28;20031;-75
2022/08/03 12:58:55;;;;;;;1.88;0.60;;;34.20;56.40;;;;;;5111993;28;20032;-75
2022/08/03 13:01:23;;;;;;;3.95;0.80;;;34.20;55.90;;;;;;5093633;28;20055;-75
2022/08/03 13:03:51;;;;;;;2.83;0.93;;;34.30;56.00;;;;;;5093012;28;20122;-76
2022/08/03 13:06:23;;;;;;;2.50;0.82;;;34.30;55.00;;;;;;5112176;28;20051;-75
2022/08/03 13:09:00;;;;;;;1.55;0.65;;;34.00;55.80;;;;;;5113637;28;20444;-75